Time;durP1;ratioP1;P1;durP2;ratioP2;P2;SDS_P1;SDS_P2;PMS_P1;PMS_P2;Temp;Humidity;BMP_temperature;BMP_pressure;BME280_temperature;BME280_humidity;BME280_pressure;Samples;Min_cycle;Max_cycle;Signal;HPM_P1;HPM_P2
2022/01/09 00:01:53;;;;;;;0.20;0.20;;;;;20.50;100718.00;;;;5088398;28;20040;-76
2022/01/09 00:04:23;;;;;;;2.50;0.65;;;;;20.40;100700.00;;;;5088453;28;20548;-75
2022/01/09 00:06:52;;;;;;;0.00;0.00;;;;;20.40;100700.00;;;;5087113;28;20048;-76
2022/01/09 00:09:21;;;;;;;0.20;0.20;;;;;20.30;100723.00;;;;5088313;28;20666;-78
2022/01/09 00:11:51;;;;;;;3.03;0.68;;;;;20.30;100714.00;;;;5088413;28;20589;-76
2022/01/09 00:14:20;;;;;;;0.00;0.00;;;;;20.30;100719.00;;;;5088891;28;20063;-77
2022/01/09 00:16:50;;;;;;;0.00;0.00;;;;;20.20;100734.00;;;;5088526;28;20141;-77
2022/01/09 00:19:19;;;;;;;0.00;0.00;;;;;20.20;100723.00;;;;5088783;28;20039;-77
2022/01/09 00:21:48;;;;;;;0.75;0.35;;;;;20.10;100734.00;;;;5089017;28;20051;-77
2022/01/09 00:24:18;;;;;;;0.00;0.00;;;;;20.10;100728.00;;;;5088321;28;20050;-77
2022/01/09 00:26:47;;;;;;;1.27;0.10;;;;;20.10;100728.00;;;;5089047;28;20039;-78
2022/01/09 00:29:16;;;;;;;0.08;0.05;;;;;20.10;100730.00;;;;5088823;28;20449;-77
2022/01/09 00:31:46;;;;;;;1.00;0.03;;;;;20.10;100713.00;;;;5087292;28;20059;-77
2022/01/09 00:34:15;;;;;;;0.00;0.00;;;;;20.20;100732.00;;;;5088384;28;20044;-77
2022/01/09 00:36:45;;;;;;;0.60;0.30;;;;;20.30;100734.00;;;;5088279;28;20052;-76
2022/01/09 00:39:14;;;;;;;0.10;0.10;;;;;20.20;100747.00;;;;5088915;28;20055;-77
2022/01/09 00:41:43;;;;;;;0.85;0.30;;;;;20.00;100745.00;;;;5086251;28;20048;-77
2022/01/09 00:44:13;;;;;;;0.10;0.10;;;;;20.10;100736.00;;;;5088817;28;20506;-77
2022/01/09 00:46:42;;;;;;;0.00;0.00;;;;;20.10;100733.00;;;;5088623;28;20097;-77
2022/01/09 00:49:12;;;;;;;0.17;0.17;;;;;20.10;100741.00;;;;5087333;28;20097;-77
2022/01/09 00:51:41;;;;;;;0.15;0.15;;;;;20.10;100753.00;;;;5088105;28;20133;-77
2022/01/09 00:54:10;;;;;;;0.10;0.10;;;;;20.10;100733.00;;;;5087840;28;20058;-76
2022/01/09 00:56:40;;;;;;;0.03;0.00;;;;;20.20;100756.00;;;;5088616;28;20047;-77
2022/01/09 00:59:12;;;;;;;0.00;0.00;;;;;20.00;100741.00;;;;5088402;28;20040;-76
2022/01/09 01:01:41;;;;;;;0.00;0.00;;;;;20.20;100744.00;;;;5087595;28;20087;-77
2022/01/09 01:04:11;;;;;;;0.00;0.00;;;;;20.20;100757.00;;;;5088454;28;20050;-76
2022/01/09 01:06:41;;;;;;;0.00;0.00;;;;;20.10;100744.00;;;;5087757;28;20036;-77
2022/01/09 01:09:10;;;;;;;1.40;0.20;;;;;20.00;100756.00;;;;5087613;28;20044;-77
2022/01/09 01:11:40;;;;;;;1.85;0.28;;;;;20.10;100758.00;;;;5087895;28;20047;-77
2022/01/09 01:14:09;;;;;;;4.25;0.45;;;;;20.00;100741.00;;;;5087088;28;20051;-76
2022/01/09 01:16:39;;;;;;;0.10;0.00;;;;;20.00;100760.00;;;;5088088;28;20040;-77
2022/01/09 01:19:10;;;;;;;0.08;0.08;;;;;20.00;100762.00;;;;5087791;28;20040;-79
2022/01/09 01:21:40;;;;;;;0.00;0.00;;;;;20.00;100745.00;;;;5087711;28;20048;-76
2022/01/09 01:24:10;;;;;;;0.00;0.00;;;;;19.90;100756.00;;;;5087625;28;20109;-76
2022/01/09 01:26:39;;;;;;;0.00;0.00;;;;;19.80;100747.00;;;;5087273;28;20522;-76
2022/01/09 01:29:10;;;;;;;1.55;0.30;;;;;19.80;100752.00;;;;5086882;28;20545;-77
2022/01/09 01:31:40;;;;;;;0.00;0.00;;;;;19.90;100744.00;;;;5088079;28;20040;-76
2022/01/09 01:34:12;;;;;;;0.00;0.00;;;;;20.00;100760.00;;;;5087570;28;20044;-77
2022/01/09 01:36:41;;;;;;;0.08;0.05;;;;;19.90;100757.00;;;;5087375;28;20040;-76
2022/01/09 01:39:11;;;;;;;0.38;0.38;;;;;19.90;100767.00;;;;5086839;28;20092;-76
2022/01/09 01:41:41;;;;;;;0.08;0.00;;;;;19.90;100764.00;;;;5086597;28;20040;-78
2022/01/09 01:44:12;;;;;;;0.13;0.13;;;;;19.80;100778.00;;;;5086999;28;20040;-77
2022/01/09 01:46:42;;;;;;;0.00;0.00;;;;;19.70;100779.00;;;;5087527;28;20058;-77
2022/01/09 01:49:12;;;;;;;0.00;0.00;;;;;19.70;100784.00;;;;5087274;28;20040;-78
2022/01/09 01:51:44;;;;;;;0.00;0.00;;;;;19.80;100767.00;;;;5085575;28;20048;-79
2022/01/09 01:54:14;;;;;;;0.28;0.15;;;;;19.90;100783.00;;;;5083315;28;20043;-78
2022/01/09 01:56:43;;;;;;;0.00;0.00;;;;;19.80;100775.00;;;;5083720;28;20048;-77
2022/01/09 01:59:13;;;;;;;0.00;0.00;;;;;19.60;100781.00;;;;5084082;28;20090;-78
2022/01/09 02:01:43;;;;;;;2.63;0.22;;;;;19.60;100780.00;;;;5086517;28;20050;-79
2022/01/09 02:04:12;;;;;;;0.52;0.05;;;;;19.60;100777.00;;;;5085667;28;20043;-78
2022/01/09 02:06:42;;;;;;;0.00;0.00;;;;;19.50;100796.00;;;;5086317;28;20139;-78
2022/01/09 02:09:12;;;;;;;0.00;0.00;;;;;19.40;100789.00;;;;5075357;28;20036;-78
2022/01/09 02:11:42;;;;;;;0.13;0.13;;;;;19.30;100792.00;;;;5085228;28;20048;-77
2022/01/09 02:14:11;;;;;;;0.00;0.00;;;;;19.30;100791.00;;;;5084811;28;20525;-77
2022/01/09 02:16:44;;;;;;;0.00;0.00;;;;;19.40;100786.00;;;;5086312;28;20047;-77
2022/01/09 02:19:16;;;;;;;0.00;0.00;;;;;19.50;100794.00;;;;5086752;28;20067;-78
2022/01/09 02:21:46;;;;;;;0.00;0.00;;;;;19.50;100777.00;;;;5087002;28;20050;-76
2022/01/09 02:24:15;;;;;;;0.00;0.00;;;;;19.50;100784.00;;;;5083715;28;20549;-77
2022/01/09 02:26:45;;;;;;;2.90;0.10;;;;;19.50;100791.00;;;;5085225;28;20051;-78
2022/01/09 02:29:14;;;;;;;0.00;0.00;;;;;19.40;100781.00;;;;5084488;28;20064;-77
2022/01/09 02:31:45;;;;;;;0.00;0.00;;;;;19.60;100773.00;;;;5085294;28;20040;-77
2022/01/09 02:34:14;;;;;;;0.75;0.30;;;;;19.50;100774.00;;;;5086701;28;20039;-78
2022/01/09 02:36:43;;;;;;;0.00;0.00;;;;;19.50;100786.00;;;;5084966;28;20058;-77
2022/01/09 02:39:13;;;;;;;0.03;0.03;;;;;19.40;100775.00;;;;5085473;28;20048;-78
2022/01/09 02:41:42;;;;;;;0.10;0.00;;;;;19.40;100770.00;;;;5086037;28;20105;-80
2022/01/09 02:44:11;;;;;;;0.00;0.00;;;;;19.30;100762.00;;;;5086405;28;20039;-78
2022/01/09 02:49:10;;;;;;;0.00;0.00;;;;;19.40;100771.00;;;;5086674;28;20040;-78
2022/01/09 02:51:40;;;;;;;0.10;0.05;;;;;19.50;100757.00;;;;5087224;28;20493;-76
2022/01/09 02:56:58;;;;;;;0.00;0.00;;;;;19.50;100756.00;;;;5086616;28;20113;-79
2022/01/09 02:59:27;;;;;;;0.00;0.00;;;;;19.50;100768.00;;;;5082613;28;20075;-77
2022/01/09 03:01:57;;;;;;;0.10;0.10;;;;;19.40;100765.00;;;;5064601;28;20485;-77
2022/01/09 03:04:26;;;;;;;0.00;0.00;;;;;19.30;100763.00;;;;5066809;28;20033;-77
2022/01/09 03:06:56;;;;;;;0.00;0.00;;;;;19.20;100749.00;;;;5065813;28;20092;-77
2022/01/09 03:09:25;;;;;;;5.72;0.22;;;;;19.20;100757.00;;;;5066837;28;20098;-77
2022/01/09 03:11:55;;;;;;;0.00;0.00;;;;;19.10;100742.00;;;;5066423;28;20044;-78
2022/01/09 03:14:24;;;;;;;0.00;0.00;;;;;19.10;100754.00;;;;5066150;28;20049;-77
2022/01/09 03:16:54;;;;;;;0.47;0.40;;;;;19.10;100748.00;;;;5066124;28;20506;-77
2022/01/09 03:19:23;;;;;;;0.45;0.00;;;;;19.10;100733.00;;;;5064962;28;20148;-81
2022/01/09 03:21:52;;;;;;;0.00;0.00;;;;;19.20;100747.00;;;;5066263;28;20495;-78
2022/01/09 03:24:22;;;;;;;0.25;0.20;;;;;19.30;100751.00;;;;5069149;28;20051;-78
2022/01/09 03:26:51;;;;;;;0.00;0.00;;;;;19.40;100734.00;;;;5069824;28;21106;-77
2022/01/09 03:29:21;;;;;;;0.00;0.00;;;;;19.40;100739.00;;;;5070127;28;20552;-78
2022/01/09 03:31:50;;;;;;;0.00;0.00;;;;;19.40;100743.00;;;;5068250;28;20056;-77
2022/01/09 03:34:20;;;;;;;0.00;0.00;;;;;19.40;100741.00;;;;5069771;28;20049;-78
2022/01/09 03:36:50;;;;;;;0.00;0.00;;;;;19.30;100735.00;;;;5069828;28;20071;-76
2022/01/09 03:39:19;;;;;;;0.00;0.00;;;;;19.20;100729.00;;;;5069792;28;20040;-78
2022/01/09 03:41:49;;;;;;;0.00;0.00;;;;;19.20;100738.00;;;;5069598;28;20545;-77
2022/01/09 03:44:18;;;;;;;0.00;0.00;;;;;19.20;100720.00;;;;5069597;28;20048;-78
2022/01/09 03:46:47;;;;;;;1.08;0.25;;;;;19.30;100733.00;;;;5069044;28;20048;-78
2022/01/09 03:49:17;;;;;;;0.00;0.00;;;;;19.40;100723.00;;;;5069546;28;20518;-78
2022/01/09 03:51:50;;;;;;;0.10;0.00;;;;;19.30;100715.00;;;;5069132;28;20052;-78
2022/01/09 03:54:22;;;;;;;0.00;0.00;;;;;19.30;100736.00;;;;5069084;28;20041;-78
2022/01/09 03:56:51;;;;;;;0.00;0.00;;;;;19.20;100730.00;;;;5068679;28;20048;-78
2022/01/09 03:59:21;;;;;;;0.40;0.05;;;;;19.20;100729.00;;;;5069410;28;20040;-78
2022/01/09 04:01:51;;;;;;;0.00;0.00;;;;;19.10;100725.00;;;;5069018;28;20105;-78
2022/01/09 04:04:21;;;;;;;0.25;0.20;;;;;19.00;100734.00;;;;5069851;28;20491;-78
2022/01/09 04:06:51;;;;;;;1.08;0.88;;;;;19.10;100726.00;;;;5068949;28;20140;-77
2022/01/09 04:09:28;;;;;;;0.68;0.68;;;;;19.10;100727.00;;;;5069395;28;20574;-77
2022/01/09 04:12:03;;;;;;;0.00;0.00;;;;;19.00;100716.00;;;;5051868;28;20396;-78
2022/01/09 04:14:32;;;;;;;0.00;0.00;;;;;18.90;100711.00;;;;5069811;28;20500;-78
2022/01/09 04:17:04;;;;;;;0.05;0.00;;;;;19.00;100704.00;;;;5069406;28;20040;-78
2022/01/09 04:19:34;;;;;;;0.00;0.00;;;;;18.90;100708.00;;;;5068493;28;20044;-79
2022/01/09 04:22:04;;;;;;;0.00;0.00;;;;;18.80;100715.00;;;;5069362;28;20048;-77
2022/01/09 04:24:33;;;;;;;0.00;0.00;;;;;18.80;100696.00;;;;5069186;28;20384;-77
2022/01/09 04:27:03;;;;;;;0.00;0.00;;;;;18.90;100722.00;;;;5069128;28;20044;-78
2022/01/09 04:29:32;;;;;;;0.00;0.00;;;;;18.80;100702.00;;;;5068820;28;20044;-78
2022/01/09 04:32:02;;;;;;;0.00;0.00;;;;;18.70;100711.00;;;;5068533;28;20049;-78
2022/01/09 04:34:31;;;;;;;0.00;0.00;;;;;18.70;100706.00;;;;5068330;28;20052;-77
2022/01/09 04:37:01;;;;;;;0.00;0.00;;;;;18.60;100687.00;;;;5068920;28;20044;-77
2022/01/09 04:39:31;;;;;;;0.00;0.00;;;;;18.70;100702.00;;;;5068796;28;20040;-78
2022/01/09 04:42:00;;;;;;;0.00;0.00;;;;;18.90;100699.00;;;;5068812;28;20045;-78
2022/01/09 04:44:29;;;;;;;0.00;0.00;;;;;18.90;100694.00;;;;5066868;28;20045;-77
2022/01/09 04:47:04;;;;;;;0.08;0.00;;;;;18.80;100685.00;;;;5068906;28;20487;-77
2022/01/09 04:49:40;;;;;;;0.00;0.00;;;;;18.80;100670.00;;;;5068538;28;20763;-78
2022/01/09 04:52:14;;;;;;;0.00;0.00;;;;;18.70;100681.00;;;;5067959;28;20151;-77
2022/01/09 04:54:44;;;;;;;0.00;0.00;;;;;18.70;100662.00;;;;5068659;28;20416;-78
2022/01/09 04:57:13;;;;;;;0.00;0.00;;;;;18.70;100668.00;;;;5067773;28;20534;-78
2022/01/09 04:59:43;;;;;;;0.00;0.00;;;;;18.60;100687.00;;;;5067440;28;20078;-78
2022/01/09 05:02:12;;;;;;;0.00;0.00;;;;;18.70;100687.00;;;;5068252;28;20518;-78
2022/01/09 05:04:41;;;;;;;0.00;0.00;;;;;18.70;100684.00;;;;5068286;28;20119;-78
2022/01/09 05:07:11;;;;;;;0.00;0.00;;;;;18.60;100671.00;;;;5068080;28;20051;-78
2022/01/09 05:09:41;;;;;;;0.00;0.00;;;;;18.80;100679.00;;;;5067630;28;20048;-78
2022/01/09 05:12:11;;;;;;;0.10;0.10;;;;;18.70;100664.00;;;;5067975;28;20052;-77
2022/01/09 05:14:41;;;;;;;0.00;0.00;;;;;18.60;100683.00;;;;5068090;28;20461;-77
2022/01/09 05:17:10;;;;;;;0.00;0.00;;;;;18.50;100672.00;;;;5068203;28;20056;-77
2022/01/09 05:19:41;;;;;;;0.00;0.00;;;;;18.30;100694.00;;;;5067846;28;20487;-77
2022/01/09 05:22:11;;;;;;;0.00;0.00;;;;;18.20;100689.00;;;;5067546;28;20044;-77
2022/01/09 05:24:41;;;;;;;0.00;0.00;;;;;18.20;100672.00;;;;5067903;28;20056;-76
2022/01/09 05:27:12;;;;;;;0.00;0.00;;;;;18.40;100695.00;;;;5066909;28;20045;-75
2022/01/09 05:29:42;;;;;;;0.00;0.00;;;;;18.40;100697.00;;;;5067343;28;20045;-76
2022/01/09 05:32:11;;;;;;;0.00;0.00;;;;;18.60;100694.00;;;;5066473;28;20044;-75
2022/01/09 05:34:42;;;;;;;0.00;0.00;;;;;18.60;100683.00;;;;5066393;28;20558;-75
2022/01/09 05:37:12;;;;;;;0.88;0.10;;;;;18.70;100694.00;;;;5067346;28;20067;-76
2022/01/09 05:39:43;;;;;;;0.00;0.00;;;;;18.60;100701.00;;;;5067539;28;20051;-76
2022/01/09 05:42:14;;;;;;;0.10;0.10;;;;;18.60;100718.00;;;;5066730;28;20052;-76
2022/01/09 05:44:44;;;;;;;1.52;0.40;;;;;18.60;100701.00;;;;5066500;28;20098;-75
2022/01/09 05:47:14;;;;;;;0.00;0.00;;;;;18.60;100714.00;;;;5065913;28;20036;-76
2022/01/09 05:49:44;;;;;;;0.00;0.00;;;;;18.60;100719.00;;;;5067513;28;20048;-77
2022/01/09 05:52:13;;;;;;;0.00;0.00;;;;;18.60;100699.00;;;;5067174;28;20062;-76
2022/01/09 05:54:43;;;;;;;0.00;0.00;;;;;18.50;100708.00;;;;5067431;28;20040;-76
2022/01/09 05:57:13;;;;;;;0.00;0.00;;;;;18.50;100721.00;;;;5067164;28;20126;-76
2022/01/09 05:59:43;;;;;;;0.00;0.00;;;;;18.40;100726.00;;;;5066964;28;20071;-77
2022/01/09 06:02:12;;;;;;;0.00;0.00;;;;;18.40;100703.00;;;;5067011;28;20102;-77
2022/01/09 06:04:42;;;;;;;0.00;0.00;;;;;18.30;100721.00;;;;5066948;28;20048;-76
2022/01/09 06:07:13;;;;;;;0.00;0.00;;;;;18.50;100719.00;;;;5065805;28;20044;-76
2022/01/09 06:09:42;;;;;;;0.00;0.00;;;;;18.50;100715.00;;;;5067035;28;20515;-76
2022/01/09 06:12:12;;;;;;;0.00;0.00;;;;;18.50;100706.00;;;;5066646;28;20067;-77
2022/01/09 06:14:42;;;;;;;0.00;0.00;;;;;18.40;100710.00;;;;5065738;28;20152;-76
2022/01/09 06:17:12;;;;;;;0.00;0.00;;;;;18.30;100723.00;;;;5066718;28;20060;-76
2022/01/09 06:19:41;;;;;;;0.00;0.00;;;;;18.20;100733.00;;;;5065724;28;20106;-76
2022/01/09 06:22:17;;;;;;;0.00;0.00;;;;;18.20;100732.00;;;;5066963;28;20521;-76
2022/01/09 06:24:50;;;;;;;3.55;0.43;;;;;18.20;100726.00;;;;5066790;28;20033;-76
2022/01/09 06:27:21;;;;;;;0.00;0.00;;;;;18.30;100727.00;;;;5066553;28;20044;-76
2022/01/09 06:29:51;;;;;;;0.00;0.00;;;;;18.30;100738.00;;;;5066981;28;20036;-76
2022/01/09 06:32:20;;;;;;;0.10;0.10;;;;;18.40;100712.00;;;;5067235;28;20041;-76
2022/01/09 06:34:50;;;;;;;0.00;0.00;;;;;18.40;100712.00;;;;5066369;28;20773;-76
2022/01/09 06:37:19;;;;;;;0.00;0.00;;;;;18.40;100737.00;;;;5066085;28;20041;-77
2022/01/09 06:39:49;;;;;;;0.00;0.00;;;;;18.50;100711.00;;;;5066507;28;20047;-76
2022/01/09 06:42:18;;;;;;;0.00;0.00;;;;;18.50;100712.00;;;;5066300;28;20635;-76
2022/01/09 06:44:48;;;;;;;0.00;0.00;;;;;18.40;100728.00;;;;5066503;28;20055;-77
2022/01/09 06:47:18;;;;;;;0.00;0.00;;;;;18.40;100711.00;;;;5066912;28;20047;-77
2022/01/09 06:49:48;;;;;;;0.00;0.00;;;;;18.30;100736.00;;;;5065289;28;20048;-77
2022/01/09 06:52:17;;;;;;;0.00;0.00;;;;;18.30;100719.00;;;;5066074;28;20052;-77
2022/01/09 06:54:46;;;;;;;0.00;0.00;;;;;18.20;100732.00;;;;5066783;28;20045;-76
2022/01/09 06:57:16;;;;;;;0.00;0.00;;;;;18.20;100711.00;;;;5067200;28;20169;-77
2022/01/09 06:59:45;;;;;;;0.00;0.00;;;;;18.40;100717.00;;;;5069198;28;20049;-77
2022/01/09 07:02:15;;;;;;;0.00;0.00;;;;;18.20;100734.00;;;;5070524;28;20052;-77
2022/01/09 07:04:44;;;;;;;0.10;0.10;;;;;18.00;100738.00;;;;5071004;28;20048;-77
2022/01/09 07:07:13;;;;;;;0.00;0.00;;;;;17.90;100737.00;;;;5069025;28;20048;-77
2022/01/09 07:09:43;;;;;;;0.10;0.10;;;;;17.80;100721.00;;;;5070607;28;20051;-77
2022/01/09 07:12:12;;;;;;;0.00;0.00;;;;;18.00;100726.00;;;;5070737;28;20045;-77
2022/01/09 07:14:42;;;;;;;0.00;0.00;;;;;17.90;100743.00;;;;5070248;28;20052;-76
2022/01/09 07:17:13;;;;;;;0.00;0.00;;;;;18.00;100754.00;;;;5069232;28;20094;-77
2022/01/09 07:19:42;;;;;;;0.00;0.00;;;;;18.00;100739.00;;;;5070728;28;20044;-77
2022/01/09 07:22:12;;;;;;;0.00;0.00;;;;;18.00;100750.00;;;;5069181;28;20052;-77
2022/01/09 07:24:41;;;;;;;0.00;0.00;;;;;17.90;100741.00;;;;5070311;28;20429;-77
2022/01/09 07:27:11;;;;;;;0.00;0.00;;;;;17.80;100731.00;;;;5069569;28;20052;-77
2022/01/09 07:29:41;;;;;;;0.00;0.00;;;;;17.90;100750.00;;;;5069873;28;20479;-77
2022/01/09 07:32:13;;;;;;;0.00;0.00;;;;;17.90;100742.00;;;;5070189;28;20036;-76
2022/01/09 07:34:43;;;;;;;0.00;0.00;;;;;17.80;100753.00;;;;5070023;28;20044;-76
2022/01/09 07:37:14;;;;;;;0.00;0.00;;;;;17.80;100759.00;;;;5070886;28;20040;-77
2022/01/09 07:39:43;;;;;;;2.33;0.22;;;;;17.90;100761.00;;;;5069635;28;20067;-76
2022/01/09 07:42:13;;;;;;;0.10;0.10;;;;;17.90;100761.00;;;;5069347;28;20040;-77
2022/01/09 07:44:42;;;;;;;0.00;0.00;;;;;18.20;100760.00;;;;5069512;28;20040;-77
2022/01/09 07:47:12;;;;;;;0.70;0.32;;;;;18.00;100769.00;;;;5069415;28;20033;-77
2022/01/09 07:49:41;;;;;;;0.00;0.00;;;;;17.80;100783.00;;;;5069523;28;20052;-77
2022/01/09 07:52:11;;;;;;;0.00;0.00;;;;;17.60;100771.00;;;;5069691;28;20064;-77
2022/01/09 07:54:40;;;;;;;0.00;0.00;;;;;17.40;100776.00;;;;5070006;28;20044;-77
2022/01/09 07:57:10;;;;;;;0.00;0.00;;;;;17.40;100788.00;;;;5069003;28;20048;-77
2022/01/09 07:59:39;;;;;;;0.00;0.00;;;;;17.60;100777.00;;;;5069604;28;20107;-76
2022/01/09 08:02:09;;;;;;;0.00;0.00;;;;;17.60;100778.00;;;;5069463;28;20074;-77
2022/01/09 08:04:39;;;;;;;0.00;0.00;;;;;17.60;100795.00;;;;5069079;28;20047;-77
2022/01/09 08:07:12;;;;;;;0.00;0.00;;;;;17.50;100802.00;;;;5069352;28;20090;-77
2022/01/09 08:09:42;;;;;;;0.00;0.00;;;;;17.40;100800.00;;;;5068503;28;20145;-76
2022/01/09 08:12:14;;;;;;;0.00;0.00;;;;;17.20;100785.00;;;;5069453;28;20052;-77
2022/01/09 08:14:45;;;;;;;0.00;0.00;;;;;17.10;100805.00;;;;5068527;28;20037;-77
2022/01/09 08:17:15;;;;;;;0.00;0.00;;;;;17.00;100812.00;;;;5068471;28;20052;-76
2022/01/09 08:19:44;;;;;;;0.00;0.00;;;;;16.90;100816.00;;;;5069236;28;20509;-76
2022/01/09 08:22:14;;;;;;;0.00;0.00;;;;;16.80;100821.00;;;;5069493;28;20118;-77
2022/01/09 08:24:43;;;;;;;0.00;0.00;;;;;16.80;100825.00;;;;5069050;28;20047;-77
2022/01/09 08:27:14;;;;;;;0.00;0.00;;;;;16.80;100812.00;;;;5068856;28;20051;-77
2022/01/09 08:29:43;;;;;;;0.00;0.00;;;;;16.70;100814.00;;;;5068967;28;20036;-77
2022/01/09 08:32:13;;;;;;;0.00;0.00;;;;;16.70;100814.00;;;;5067510;28;20045;-77
2022/01/09 08:34:43;;;;;;;0.00;0.00;;;;;16.60;100824.00;;;;5068561;28;20169;-77
2022/01/09 08:37:13;;;;;;;0.00;0.00;;;;;16.60;100833.00;;;;5068795;28;20486;-76
2022/01/09 08:39:44;;;;;;;0.00;0.00;;;;;16.60;100827.00;;;;5068491;28;20045;-76
2022/01/09 08:42:14;;;;;;;0.15;0.15;;;;;16.60;100827.00;;;;5068997;28;20048;-77
2022/01/09 08:44:43;;;;;;;0.00;0.00;;;;;16.50;100820.00;;;;5068750;28;20063;-76
2022/01/09 08:47:14;;;;;;;0.00;0.00;;;;;16.40;100830.00;;;;5067735;28;20049;-76
2022/01/09 08:49:44;;;;;;;0.00;0.00;;;;;16.40;100820.00;;;;5068400;28;20744;-76
2022/01/09 08:52:13;;;;;;;0.00;0.00;;;;;16.40;100837.00;;;;5067892;28;20148;-77
2022/01/09 08:54:43;;;;;;;0.00;0.00;;;;;16.40;100818.00;;;;5068204;28;20110;-76
2022/01/09 08:57:13;;;;;;;0.00;0.00;;;;;16.40;100828.00;;;;5067712;28;20048;-77
2022/01/09 08:59:42;;;;;;;1.08;0.15;;;;;16.40;100852.00;;;;5067696;28;20040;-76
2022/01/09 09:02:11;;;;;;;3.75;0.63;;;;;16.50;100849.00;;;;5067132;28;20044;-77
2022/01/09 09:04:41;;;;;;;0.10;0.10;;;;;16.60;100851.00;;;;5067541;28;20041;-76
2022/01/09 09:07:11;;;;;;;0.00;0.00;;;;;16.70;100860.00;;;;5067964;28;20048;-76
2022/01/09 09:09:41;;;;;;;0.00;0.00;;;;;16.80;100845.00;;;;5067273;28;20069;-76
2022/01/09 09:12:10;;;;;;;0.00;0.00;;;;;17.10;100849.00;;;;5067297;28;20078;-77
2022/01/09 09:14:40;;;;;;;0.00;0.00;;;;;17.50;100855.00;;;;5066929;28;20059;-77
2022/01/09 09:17:10;;;;;;;0.00;0.00;;;;;17.70;100864.00;;;;5065818;28;20060;-76
2022/01/09 09:19:39;;;;;;;0.00;0.00;;;;;17.80;100850.00;;;;5066776;28;20136;-76
2022/01/09 09:22:09;;;;;;;0.00;0.00;;;;;18.10;100857.00;;;;5066620;28;20056;-76
2022/01/09 09:24:38;;;;;;;0.00;0.00;;;;;18.20;100865.00;;;;5068168;28;20143;-77
2022/01/09 09:27:09;;;;;;;0.00;0.00;;;;;18.20;100869.00;;;;5067213;28;20514;-77
2022/01/09 09:29:38;;;;;;;0.00;0.00;;;;;18.30;100856.00;;;;5068147;28;20549;-77
2022/01/09 09:32:08;;;;;;;0.00;0.00;;;;;18.40;100868.00;;;;5067306;28;20048;-77
2022/01/09 09:34:39;;;;;;;0.00;0.00;;;;;18.60;100865.00;;;;5067377;28;20051;-77
2022/01/09 09:37:10;;;;;;;0.00;0.00;;;;;18.80;100859.00;;;;5067740;28;20052;-77
2022/01/09 09:39:39;;;;;;;0.00;0.00;;;;;19.30;100846.00;;;;5067991;28;20408;-77
2022/01/09 09:42:09;;;;;;;0.00;0.00;;;;;19.40;100849.00;;;;5067091;28;20510;-77
2022/01/09 09:44:38;;;;;;;0.00;0.00;;;;;19.80;100862.00;;;;5066975;28;20094;-77
2022/01/09 09:47:10;;;;;;;0.00;0.00;;;;;19.60;100860.00;;;;5067455;28;20060;-77
2022/01/09 09:49:40;;;;;;;0.00;0.00;;;;;19.60;100884.00;;;;5067536;28;20357;-77
2022/01/09 09:52:10;;;;;;;0.00;0.00;;;;;19.70;100864.00;;;;5067591;28;20503;-77
2022/01/09 09:54:39;;;;;;;0.00;0.00;;;;;20.10;100853.00;;;;5067532;28;20423;-77
2022/01/09 09:57:09;;;;;;;0.00;0.00;;;;;20.60;100836.00;;;;5066785;28;20094;-77
2022/01/09 09:59:39;;;;;;;0.00;0.00;;;;;21.10;100834.00;;;;5067279;28;20067;-77
2022/01/09 10:02:15;;;;;;;0.00;0.00;;;;;21.10;100859.00;;;;5065683;28;20045;-78
2022/01/09 10:05:01;;;;;;;0.00;0.00;;;;;21.10;100862.00;;;;5067567;28;20781;-77
2022/01/09 10:07:32;;;;;;;0.00;0.00;;;;;21.50;100832.00;;;;5066864;28;20422;-78
2022/01/09 10:10:10;;;;;;;0.00;0.00;;;;;23.00;100800.00;;;;5067495;28;20045;-76
2022/01/09 10:12:41;;;;;;;0.00;0.00;;;;;22.50;100861.00;;;;5066882;28;20045;-77
2022/01/09 10:15:20;;;;;;;0.00;0.00;;;;;21.90;100860.00;;;;5066688;28;20040;-77
2022/01/09 10:17:51;;;;;;;0.00;0.00;;;;;22.00;100839.00;;;;5065127;28;20067;-77
2022/01/09 10:20:24;;;;;;;0.00;0.00;;;;;22.20;100846.00;;;;5066897;28;20095;-77
2022/01/09 10:22:55;;;;;;;0.00;0.00;;;;;22.30;100855.00;;;;5066702;28;20051;-77
2022/01/09 10:25:30;;;;;;;1.08;0.47;;;;;22.40;100850.00;;;;5066435;28;20051;-78
2022/01/09 10:28:04;;;;;;;0.00;0.00;;;;;22.70;100845.00;;;;5066640;28;20055;-77
2022/01/09 10:30:43;;;;;;;0.00;0.00;;;;;22.80;100867.00;;;;5065894;28;20059;-77
2022/01/09 10:33:21;;;;;;;0.55;0.55;;;;;23.00;100875.00;;;;5066245;28;20072;-77
2022/01/09 10:35:52;;;;;;;0.00;0.00;;;;;23.20;100869.00;;;;5066771;28;20036;-77
2022/01/09 10:38:27;;;;;;;0.00;0.00;;;;;23.20;100860.00;;;;5066608;28;20045;-77
2022/01/09 10:41:00;;;;;;;0.00;0.00;;;;;23.50;100874.00;;;;5064204;28;20048;-77
2022/01/09 10:43:40;;;;;;;0.00;0.00;;;;;23.80;100851.00;;;;5065082;28;20045;-77
2022/01/09 10:46:10;;;;;;;0.00;0.00;;;;;24.50;100850.00;;;;5066190;28;20041;-77
2022/01/09 10:48:44;;;;;;;0.00;0.00;;;;;24.90;100844.00;;;;5066579;28;20068;-77
2022/01/09 10:51:14;;;;;;;0.00;0.00;;;;;24.60;100853.00;;;;5066375;28;20496;-77
2022/01/09 10:53:47;;;;;;;0.00;0.00;;;;;24.70;100854.00;;;;5066333;28;20049;-77
2022/01/09 10:56:25;;;;;;;0.00;0.00;;;;;24.90;100857.00;;;;5066252;28;20560;-75
2022/01/09 10:58:56;;;;;;;0.00;0.00;;;;;25.00;100860.00;;;;5066390;28;20082;-76
2022/01/09 11:01:28;;;;;;;0.00;0.00;;;;;24.70;100864.00;;;;5066145;28;20045;-78
2022/01/09 11:04:08;;;;;;;0.00;0.00;;;;;24.60;100850.00;;;;5065804;28;20044;-76
2022/01/09 11:06:40;;;;;;;0.00;0.00;;;;;24.80;100849.00;;;;5066166;28;20438;-76
2022/01/09 11:09:09;;;;;;;;;;;;;25.30;100856.00;;;;5067054;28;20036;-76
2022/01/09 11:11:40;;;;;;;0.00;0.00;;;;;26.60;100794.00;;;;5066167;28;19982;-76
2022/01/09 11:14:14;;;;;;;14.30;1.02;;;;;27.70;100792.00;;;;5066049;28;20068;-76
2022/01/09 11:16:54;;;;;;;0.00;0.00;;;;;28.40;100797.00;;;;5065881;28;20056;-77
2022/01/09 11:19:25;;;;;;;0.00;0.00;;;;;28.90;100824.00;;;;5066309;28;20538;-77
2022/01/09 11:22:01;;;;;;;0.00;0.00;;;;;28.00;100849.00;;;;5065855;28;20041;-77
2022/01/09 11:24:49;;;;;;;0.00;0.00;;;;;28.00;100834.00;;;;5066179;28;20041;-77
2022/01/09 11:27:19;;;;;;;0.00;0.00;;;;;28.70;100829.00;;;;5066832;28;20056;-77
2022/01/09 11:30:09;;;;;;;0.00;0.00;;;;;28.90;100838.00;;;;5064076;28;20747;-77
2022/01/09 11:32:48;;;;;;;0.00;0.00;;;;;28.90;100837.00;;;;5065687;28;20044;-78
2022/01/09 11:35:23;;;;;;;0.00;0.00;;;;;28.90;100832.00;;;;5064382;28;20138;-77
2022/01/09 11:38:05;;;;;;;0.00;0.00;;;;;29.10;100831.00;;;;5065704;28;20404;-79
2022/01/09 11:40:35;;;;;;;0.00;0.00;;;;;28.80;100850.00;;;;5065989;28;20094;-77
2022/01/09 11:43:16;;;;;;;0.00;0.00;;;;;28.20;100825.00;;;;5064175;28;20071;-77
2022/01/09 11:45:56;;;;;;;0.00;0.00;;;;;28.60;100793.00;;;;5067864;28;20519;-77
2022/01/09 11:48:51;;;;;;;0.00;0.00;;;;;27.50;100848.00;;;;5069904;28;20102;-77
2022/01/09 11:51:25;;;;;;;0.00;0.00;;;;;28.70;100829.00;;;;5069618;28;20098;-77
2022/01/09 11:54:01;;;;;;;0.00;0.00;;;;;27.70;100933.00;;;;5069584;28;20511;-77
2022/01/09 11:56:57;;;;;;;0.00;0.00;;;;;26.20;100811.00;;;;5069690;28;20036;-78
2022/01/09 11:59:45;;;;;;;0.00;0.00;;;;;26.60;100929.00;;;;5067823;28;20072;-77
2022/01/09 12:02:15;;;;;;;0.17;0.10;;;;;25.50;100930.00;;;;5069255;28;20491;-77
2022/01/09 12:04:48;;;;;;;0.00;0.00;;;;;26.50;100851.00;;;;5069319;28;20044;-79
2022/01/09 12:07:41;;;;;;;3.25;0.65;;;;;26.60;100885.00;;;;5068891;28;20056;-78
2022/01/09 12:10:23;;;;;;;0.00;0.00;;;;;26.20;100929.00;;;;5069180;28;20427;-79
2022/01/09 12:12:56;;;;;;;0.00;0.00;;;;;26.60;100885.00;;;;5068144;28;20419;-79
2022/01/09 12:15:36;;;;;;;0.00;0.00;;;;;27.10;100887.00;;;;5069098;28;20094;-78
2022/01/09 12:18:27;;;;;;;0.00;0.00;;;;;27.10;100881.00;;;;5068914;28;20044;-78
2022/01/09 12:20:57;;;;;;;2.35;0.82;;;;;27.30;100876.00;;;;5067158;28;20595;-78
2022/01/09 12:23:26;;;;;;;0.10;0.10;;;;;27.40;100881.00;;;;5069163;28;20044;-81
2022/01/09 12:25:57;;;;;;;0.00;0.00;;;;;27.40;100875.00;;;;5068818;28;20086;-79
2022/01/09 12:28:43;;;;;;;0.00;0.00;;;;;27.80;100871.00;;;;5069066;28;20376;-79
2022/01/09 12:31:24;;;;;;;0.00;0.00;;;;;28.40;100884.00;;;;5068835;28;20496;-79
2022/01/09 12:33:57;;;;;;;0.00;0.00;;;;;28.70;100871.00;;;;5069390;28;20044;-80